createdAt,value
2018-01-05T00:01:51.941Z,8.00
2018-01-05T00:04:20.328Z,8.00
2018-01-05T00:06:48.760Z,8.00
2018-01-05T00:09:16.370Z,8.00
2018-01-05T00:11:43.973Z,7.90
2018-01-05T00:14:11.554Z,7.90
2018-01-05T00:16:39.152Z,7.90
2018-01-05T00:19:06.764Z,7.90
2018-01-05T00:21:35.114Z,7.90
2018-01-05T00:24:02.726Z,7.80
2018-01-05T00:26:31.118Z,7.90
2018-01-05T00:28:59.577Z,7.90
2018-01-05T00:31:27.195Z,7.90
2018-01-05T00:33:54.809Z,7.90
2018-01-05T00:36:23.162Z,7.80
2018-01-05T00:38:50.783Z,7.80
2018-01-05T00:41:18.361Z,7.80
2018-01-05T00:43:45.954Z,7.90
2018-01-05T00:46:13.552Z,7.90
2018-01-05T00:48:41.152Z,7.90
2018-01-05T00:51:08.741Z,7.90
2018-01-05T00:53:36.333Z,7.80
2018-01-05T00:56:03.911Z,7.80
2018-01-05T00:58:31.505Z,7.80
2018-01-05T01:00:59.093Z,7.70
2018-01-05T01:03:27.468Z,7.60
2018-01-05T01:05:55.830Z,7.70
2018-01-05T01:08:23.459Z,7.70
2018-01-05T01:10:51.094Z,7.70
2018-01-05T01:13:18.673Z,7.70
2018-01-05T01:15:46.269Z,7.60
2018-01-05T01:18:13.878Z,7.70
2018-01-05T01:20:41.486Z,7.70
2018-01-05T01:23:09.102Z,7.70
2018-01-05T01:25:36.713Z,7.70
2018-01-05T01:28:04.315Z,7.60
2018-01-05T01:30:31.930Z,7.50
2018-01-05T01:32:59.559Z,7.60
2018-01-05T01:35:27.177Z,7.60
2018-01-05T01:37:55.535Z,7.50
2018-01-05T01:40:23.134Z,7.50
2018-01-05T01:42:50.742Z,7.40
2018-01-05T01:45:18.333Z,7.40
2018-01-05T01:47:46.698Z,7.40
2018-01-05T01:50:14.459Z,7.40
2018-01-05T01:52:42.065Z,7.40
2018-01-05T01:55:09.652Z,7.40
2018-01-05T01:57:37.290Z,7.40
2018-01-05T02:00:04.885Z,7.30
2018-01-05T02:02:32.521Z,7.20
2018-01-05T02:05:00.094Z,7.10
2018-01-05T02:07:27.677Z,7.10
2018-01-05T02:09:55.295Z,7.10
2018-01-05T02:12:22.910Z,6.90
2018-01-05T02:14:51.291Z,7.00
2018-01-05T02:17:19.634Z,6.90
2018-01-05T02:19:47.285Z,6.90
2018-01-05T02:22:14.873Z,6.80
2018-01-05T02:24:42.501Z,6.80
2018-01-05T02:27:10.081Z,6.70
2018-01-05T02:29:37.728Z,6.70
2018-01-05T02:32:05.336Z,6.60
2018-01-05T02:34:33.718Z,6.70
2018-01-05T02:37:02.062Z,6.60
2018-01-05T02:39:29.673Z,6.60
2018-01-05T02:41:57.308Z,6.60
2018-01-05T02:44:24.885Z,6.50
2018-01-05T02:46:52.553Z,6.50
2018-01-05T02:49:20.140Z,6.50
2018-01-05T02:51:47.749Z,6.40
2018-01-05T02:54:15.351Z,6.40
2018-01-05T02:56:42.967Z,6.40
2018-01-05T02:59:11.315Z,6.50
2018-01-05T03:01:40.457Z,6.50
2018-01-05T03:04:08.820Z,6.50
2018-01-05T03:06:36.437Z,6.40
2018-01-05T03:09:04.013Z,6.50
2018-01-05T03:11:31.764Z,6.60
2018-01-05T03:13:59.344Z,6.50
2018-01-05T03:16:26.957Z,6.50
2018-01-05T03:18:54.568Z,6.50
2018-01-05T03:21:22.162Z,6.40
2018-01-05T03:23:50.221Z,6.40
2018-01-05T03:26:19.136Z,6.20
2018-01-05T03:28:47.068Z,6.20
2018-01-05T03:31:14.766Z,6.30
2018-01-05T03:33:42.490Z,6.30
2018-01-05T03:36:11.125Z,6.40
2018-01-05T03:38:38.717Z,6.40
2018-01-05T03:41:06.369Z,6.40
2018-01-05T03:43:33.965Z,6.40
2018-01-05T03:46:01.562Z,6.50
2018-01-05T03:48:29.149Z,6.50
2018-01-05T03:50:56.879Z,6.50
2018-01-05T03:53:24.497Z,6.60
2018-01-05T03:55:52.078Z,6.60
2018-01-05T03:58:20.440Z,6.50
2018-01-05T04:00:48.069Z,6.50
2018-01-05T04:03:15.652Z,6.50
2018-01-05T04:05:43.243Z,6.40
2018-01-05T04:08:11.600Z,6.40
2018-01-05T04:10:39.258Z,6.40
2018-01-05T04:13:06.850Z,6.50
2018-01-05T04:15:35.188Z,6.40
2018-01-05T04:18:04.521Z,6.40
2018-01-05T04:20:32.898Z,6.50
2018-01-05T04:23:01.287Z,6.60
2018-01-05T04:25:28.879Z,6.60
2018-01-05T04:27:56.469Z,6.60
2018-01-05T04:30:25.788Z,6.60
2018-01-05T04:32:53.446Z,6.60
2018-01-05T04:35:21.027Z,6.60
2018-01-05T04:37:49.390Z,6.50
2018-01-05T04:40:17.737Z,6.40
2018-01-05T04:42:45.357Z,6.40
2018-01-05T04:45:12.965Z,6.50
2018-01-05T04:47:40.585Z,6.50
2018-01-05T04:50:08.330Z,6.60
2018-01-05T04:52:36.755Z,6.70
2018-01-05T04:55:04.979Z,6.70
2018-01-05T04:57:33.321Z,6.80
2018-01-05T05:00:00.929Z,6.80
2018-01-05T05:02:28.509Z,6.80
2018-01-05T05:04:56.106Z,6.90
2018-01-05T05:07:23.710Z,6.90
2018-01-05T05:09:51.299Z,6.80
2018-01-05T05:12:19.685Z,6.80
2018-01-05T05:14:47.286Z,6.80
2018-01-05T05:17:15.777Z,6.70
2018-01-05T05:19:44.145Z,6.70
2018-01-05T05:22:12.489Z,6.70
2018-01-05T05:27:22.186Z,6.70
2018-01-05T05:29:50.530Z,6.60
2018-01-05T05:32:18.115Z,6.60
2018-01-05T05:34:45.726Z,6.60
2018-01-05T05:37:13.308Z,6.60
2018-01-05T05:39:40.914Z,6.50
2018-01-05T05:42:09.266Z,6.40
2018-01-05T05:44:37.046Z,6.30
2018-01-05T05:47:05.478Z,6.40
2018-01-05T05:49:33.092Z,6.30
2018-01-05T05:52:01.850Z,6.40
2018-01-05T05:54:29.454Z,6.40
2018-01-05T05:56:57.166Z,6.40
2018-01-05T05:59:24.856Z,6.40
2018-01-05T06:01:53.233Z,6.30
2018-01-05T06:04:20.847Z,6.30
2018-01-05T06:06:48.430Z,6.30
2018-01-05T06:09:16.015Z,6.30
2018-01-05T06:11:43.617Z,6.20
2018-01-05T06:14:11.301Z,6.20
2018-01-05T06:16:38.896Z,6.10
2018-01-05T06:19:06.813Z,6.10
2018-01-05T06:21:34.415Z,6.00
2018-01-05T06:24:02.897Z,5.90
2018-01-05T06:26:30.538Z,5.80
2018-01-05T06:28:58.167Z,5.70
2018-01-05T06:31:25.818Z,5.70
2018-01-05T06:33:53.420Z,5.60
2018-01-05T06:36:21.022Z,5.60
2018-01-05T06:38:49.379Z,5.50
2018-01-05T06:41:16.993Z,5.50
2018-01-05T06:43:44.573Z,5.50
2018-01-05T06:46:12.265Z,5.40
2018-01-05T06:48:39.948Z,5.40
2018-01-05T06:51:08.311Z,5.40
2018-01-05T06:53:35.909Z,5.40
2018-01-05T06:56:03.502Z,5.30
2018-01-05T06:58:31.090Z,5.20
2018-01-05T07:00:58.702Z,5.20
2018-01-05T07:03:26.273Z,5.20
2018-01-05T07:05:53.869Z,5.10
2018-01-05T07:08:22.230Z,5.10
2018-01-05T07:10:49.837Z,5.00
2018-01-05T07:13:17.413Z,5.00
2018-01-05T07:15:45.817Z,5.00
2018-01-05T07:18:13.697Z,5.00
2018-01-05T07:20:41.336Z,5.00
2018-01-05T07:23:08.934Z,5.00
2018-01-05T07:25:36.601Z,4.90
2018-01-05T07:28:04.984Z,4.90
2018-01-05T07:30:33.372Z,4.90
2018-01-05T07:33:01.754Z,5.00
2018-01-05T07:35:29.513Z,5.00
2018-01-05T07:37:57.897Z,5.20
2018-01-05T07:40:26.286Z,5.40
2018-01-05T07:42:54.699Z,5.60
2018-01-05T07:45:22.308Z,5.50
2018-01-05T07:47:50.658Z,5.80
2018-01-05T07:50:18.292Z,5.80
2018-01-05T07:52:45.876Z,6.00
2018-01-05T07:55:13.470Z,6.00
2018-01-05T07:57:41.836Z,6.20
2018-01-05T08:00:10.289Z,6.30
2018-01-05T08:02:37.883Z,6.30
2018-01-05T08:05:06.229Z,6.50
2018-01-05T08:07:34.691Z,6.50
2018-01-05T08:10:02.350Z,6.60
2018-01-05T08:12:30.676Z,6.60
2018-01-05T08:14:59.068Z,6.80
2018-01-05T08:17:27.417Z,7.00
2018-01-05T08:19:55.028Z,7.00
2018-01-05T08:22:22.713Z,7.10
2018-01-05T08:24:50.356Z,7.10
2018-01-05T08:27:17.951Z,7.20
2018-01-05T08:29:45.580Z,7.30
2018-01-05T08:32:14.994Z,7.30
2018-01-05T08:34:42.590Z,7.40
2018-01-05T08:37:10.191Z,7.50
2018-01-05T08:39:37.788Z,7.50
2018-01-05T08:42:05.387Z,7.50
2018-01-05T08:44:33.733Z,7.50
2018-01-05T08:47:01.328Z,7.50
2018-01-05T08:49:29.698Z,7.70
2018-01-05T08:51:58.041Z,7.70
2018-01-05T08:54:25.648Z,7.70
2018-01-05T08:56:54.078Z,7.80
2018-01-05T08:59:21.666Z,7.80
2018-01-05T09:01:49.332Z,8.00
2018-01-05T09:04:16.971Z,8.00
2018-01-05T09:06:44.567Z,8.00
2018-01-05T09:09:12.935Z,8.10
2018-01-05T09:11:41.310Z,8.10
2018-01-05T09:14:08.934Z,8.10
2018-01-05T09:16:36.530Z,8.20
2018-01-05T09:19:04.170Z,8.20
2018-01-05T09:21:31.794Z,8.20
2018-01-05T09:23:59.423Z,8.10
2018-01-05T09:26:28.304Z,8.30
2018-01-05T09:28:55.910Z,8.20
2018-01-05T09:31:23.514Z,8.30
2018-01-05T09:33:51.101Z,8.30
2018-01-05T09:36:19.475Z,8.40
2018-01-05T09:38:47.898Z,8.50
2018-01-05T09:41:15.489Z,8.50
2018-01-05T09:43:43.079Z,8.50
2018-01-05T09:46:11.429Z,8.50
2018-01-05T09:48:39.033Z,8.50
2018-01-05T09:51:06.672Z,8.60
2018-01-05T09:53:34.258Z,8.60
2018-01-05T09:56:01.883Z,8.60
2018-01-05T09:58:30.273Z,8.70
2018-01-05T10:00:58.754Z,8.60
2018-01-05T10:03:27.128Z,8.70
2018-01-05T10:05:55.473Z,8.70
2018-01-05T10:08:23.074Z,8.70
2018-01-05T10:10:51.450Z,8.70
2018-01-05T10:13:19.852Z,8.80
2018-01-05T10:15:47.454Z,8.80
2018-01-05T10:18:15.042Z,8.80
2018-01-05T10:20:43.416Z,8.90
2018-01-05T10:23:11.762Z,9.00
2018-01-05T10:25:39.386Z,9.00
2018-01-05T10:28:06.953Z,9.10
2018-01-05T10:30:34.541Z,9.10
2018-01-05T10:33:02.120Z,9.20
2018-01-05T10:35:29.729Z,9.30
2018-01-05T10:37:57.313Z,9.40
2018-01-05T10:40:24.902Z,9.50
2018-01-05T10:42:52.506Z,9.60
2018-01-05T10:45:20.346Z,9.70
2018-01-05T10:47:48.700Z,9.80
2018-01-05T10:50:16.296Z,9.70
2018-01-05T10:52:45.533Z,9.90
2018-01-05T10:55:13.145Z,9.80
2018-01-05T10:57:41.494Z,10.00
2018-01-05T11:00:09.858Z,10.00
2018-01-05T11:02:37.498Z,10.00
2018-01-05T11:05:05.081Z,10.10
2018-01-05T11:07:32.693Z,10.20
2018-01-05T11:10:01.067Z,10.20
2018-01-05T11:12:29.454Z,10.20
2018-01-05T11:14:57.801Z,10.20
2018-01-05T11:17:25.834Z,10.20
2018-01-05T11:19:53.465Z,10.20
2018-01-05T11:22:21.082Z,10.20
2018-01-05T11:24:48.726Z,10.20
2018-01-05T11:27:16.318Z,10.20
2018-01-05T11:29:43.966Z,10.20
2018-01-05T11:32:11.558Z,10.10
2018-01-05T11:34:40.047Z,9.90
2018-01-05T11:37:08.490Z,9.80
2018-01-05T11:39:36.115Z,9.80
2018-01-05T11:42:03.754Z,9.90
2018-01-05T11:44:32.105Z,9.90
2018-01-05T11:46:59.741Z,9.90
2018-01-05T11:49:27.346Z,9.90
2018-01-05T11:51:54.944Z,10.00
2018-01-05T11:54:22.545Z,10.00
2018-01-05T11:56:50.131Z,9.90
2018-01-05T11:59:18.672Z,9.90
2018-01-05T12:01:46.272Z,10.00
2018-01-05T12:04:14.770Z,10.00
2018-01-05T12:06:42.361Z,10.10
2018-01-05T12:09:09.949Z,10.10
2018-01-05T12:11:38.335Z,10.10
2018-01-05T12:14:06.722Z,10.10
2018-01-05T12:16:35.099Z,10.00
2018-01-05T12:19:03.449Z,9.90
2018-01-05T12:21:31.050Z,9.90
2018-01-05T12:23:58.646Z,9.80
2018-01-05T12:26:26.253Z,9.70
2018-01-05T12:28:54.610Z,9.80
2018-01-05T12:31:22.255Z,9.80
2018-01-05T12:33:49.866Z,9.70
2018-01-05T12:36:18.233Z,9.80
2018-01-05T12:38:46.614Z,9.80
2018-01-05T12:41:14.968Z,9.80
2018-01-05T12:43:42.596Z,9.80
2018-01-05T12:46:10.210Z,9.80
2018-01-05T12:48:38.562Z,9.80
2018-01-05T12:51:06.168Z,9.80
2018-01-05T12:53:33.785Z,9.80
2018-01-05T12:56:02.351Z,9.80
2018-01-05T12:58:29.991Z,9.80
2018-01-05T13:00:57.598Z,9.80
2018-01-05T13:03:25.181Z,9.90
2018-01-05T13:05:53.567Z,9.80
2018-01-05T13:08:23.007Z,9.80
2018-01-05T13:10:50.737Z,9.70
2018-01-05T13:13:18.320Z,9.70
2018-01-05T13:15:45.926Z,9.70
2018-01-05T13:18:13.518Z,9.80
2018-01-05T13:20:41.145Z,9.80
2018-01-05T13:23:08.730Z,9.90
2018-01-05T13:25:37.104Z,10.00
2018-01-05T13:28:05.468Z,10.00
2018-01-05T13:30:33.850Z,9.90
2018-01-05T13:33:02.200Z,9.90
2018-01-05T13:35:29.825Z,9.90
2018-01-05T13:37:57.426Z,9.90
2018-01-05T13:40:25.042Z,9.90
2018-01-05T13:42:52.689Z,9.80
2018-01-05T13:45:20.282Z,9.80
2018-01-05T13:47:47.874Z,9.80
2018-01-05T13:50:15.462Z,9.90
2018-01-05T13:52:44.788Z,9.90
2018-01-05T13:55:12.991Z,9.90
2018-01-05T13:57:41.489Z,10.00
2018-01-05T14:00:09.105Z,9.90
2018-01-05T14:02:37.603Z,10.00
2018-01-05T14:05:06.047Z,10.10
2018-01-05T14:07:33.697Z,10.10
2018-01-05T14:10:02.058Z,10.10
2018-01-05T14:12:29.650Z,10.10
2018-01-05T14:14:57.244Z,10.10
2018-01-05T14:17:25.751Z,10.10
2018-01-05T14:19:53.353Z,10.10
2018-01-05T14:22:24.243Z,10.20
2018-01-05T14:24:51.837Z,10.10
2018-01-05T14:27:20.238Z,10.10
2018-01-05T14:29:47.846Z,10.10
2018-01-05T14:32:15.538Z,10.00
2018-01-05T14:34:43.913Z,10.00
2018-01-05T14:37:12.280Z,9.90
2018-01-05T14:39:39.874Z,9.90
2018-01-05T14:42:07.456Z,9.90
2018-01-05T14:44:35.069Z,9.90
2018-01-05T14:47:03.442Z,10.00
2018-01-05T14:49:31.030Z,10.00
2018-01-05T14:51:58.633Z,10.00
2018-01-05T14:54:26.213Z,10.00
2018-01-05T14:56:53.818Z,9.90
2018-01-05T14:59:21.417Z,10.00
2018-01-05T15:01:49.027Z,9.90
2018-01-05T15:04:16.637Z,9.90
2018-01-05T15:06:44.226Z,9.80
2018-01-05T15:09:12.594Z,9.90
2018-01-05T15:11:40.181Z,9.90
2018-01-05T15:14:08.544Z,9.90
2018-01-05T15:16:36.893Z,9.80
2018-01-05T15:19:04.519Z,9.80
2018-01-05T15:21:32.153Z,9.80
2018-01-05T15:24:00.649Z,9.70
2018-01-05T15:26:28.265Z,9.70
2018-01-05T15:28:55.836Z,9.70
2018-01-05T15:31:23.453Z,9.70
2018-01-05T15:33:51.116Z,9.70
2018-01-05T15:36:18.959Z,9.80
2018-01-05T15:38:46.989Z,9.80
2018-01-05T15:41:14.601Z,9.80
2018-01-05T15:43:43.262Z,9.80
2018-01-05T15:46:11.807Z,9.80
2018-01-05T15:48:40.217Z,9.80
2018-01-05T15:51:08.659Z,9.90
2018-01-05T15:53:36.256Z,9.90
2018-01-05T15:56:04.628Z,9.90
2018-01-05T15:58:32.375Z,9.90
2018-01-05T16:01:00.039Z,9.90
2018-01-05T16:03:27.661Z,9.90
2018-01-05T16:05:55.265Z,10.00
2018-01-05T16:08:22.866Z,10.00
2018-01-05T16:11:06.304Z,9.90
2018-01-05T16:16:08.109Z,10.00
2018-01-05T16:18:36.666Z,10.00
2018-01-05T16:21:04.301Z,10.00
2018-01-05T16:23:32.933Z,10.10
2018-01-05T16:26:00.566Z,10.10
2018-01-05T16:28:28.220Z,10.10
2018-01-05T16:30:55.824Z,10.10
2018-01-05T16:33:23.431Z,10.10
2018-01-05T16:35:51.786Z,10.20
2018-01-05T16:38:19.445Z,10.20
2018-01-05T16:40:48.588Z,10.20
2018-01-05T16:43:16.193Z,10.10
2018-01-05T16:45:43.793Z,10.10
2018-01-05T16:48:12.753Z,10.00
2018-01-05T16:50:40.330Z,9.90
2018-01-05T16:53:08.022Z,9.80
2018-01-05T16:55:35.613Z,9.80
2018-01-05T16:58:03.206Z,9.70
2018-01-05T17:00:31.864Z,9.60
2018-01-05T17:02:59.491Z,9.60
2018-01-05T17:05:27.426Z,9.60
2018-01-05T17:07:56.527Z,9.30
2018-01-05T17:10:24.964Z,9.10
2018-01-05T17:12:52.573Z,9.10
2018-01-05T17:15:20.929Z,8.70
2018-01-05T17:17:48.613Z,8.70
2018-01-05T17:20:17.001Z,8.50
2018-01-05T17:22:44.591Z,8.50
2018-01-05T17:25:12.348Z,8.50
2018-01-05T17:27:40.791Z,8.50
2018-01-05T17:30:09.187Z,8.50
2018-01-05T17:32:39.396Z,8.50
2018-01-05T17:35:07.007Z,8.40
2018-01-05T17:37:34.605Z,8.30
2018-01-05T17:40:03.265Z,8.40
2018-01-05T17:42:30.869Z,8.40
2018-01-05T17:44:58.466Z,8.40
2018-01-05T17:47:26.086Z,8.30
2018-01-05T17:49:53.676Z,8.30
2018-01-05T17:52:21.288Z,8.30
2018-01-05T17:54:49.671Z,8.10
2018-01-05T17:57:18.030Z,8.20
2018-01-05T17:59:45.842Z,8.20
2018-01-05T18:02:14.187Z,8.30
2018-01-05T18:04:42.566Z,8.30
2018-01-05T18:07:11.249Z,8.40
2018-01-05T18:09:39.592Z,8.30
2018-01-05T18:12:07.265Z,8.30
2018-01-05T18:14:34.857Z,8.40
2018-01-05T18:17:03.238Z,8.40
2018-01-05T18:19:31.586Z,8.60
2018-01-05T18:21:59.197Z,8.50
2018-01-05T18:24:26.804Z,8.50
2018-01-05T18:26:54.431Z,8.60
2018-01-05T18:29:22.126Z,8.60
2018-01-05T18:31:49.713Z,8.60
2018-01-05T18:34:18.082Z,8.60
2018-01-05T18:36:45.733Z,8.50
2018-01-05T18:39:13.332Z,8.60
2018-01-05T18:41:40.962Z,8.60
2018-01-05T18:44:08.798Z,8.60
2018-01-05T18:46:37.383Z,8.60
2018-01-05T18:49:04.993Z,8.60
2018-01-05T18:51:33.382Z,8.50
2018-01-05T18:54:01.019Z,8.50
2018-01-05T18:56:28.645Z,8.40
2018-01-05T18:58:57.113Z,8.40
2018-01-05T19:01:24.734Z,8.40
2018-01-05T19:03:53.713Z,8.50
2018-01-05T19:06:22.057Z,8.50
2018-01-05T19:08:49.689Z,8.50
2018-01-05T19:11:17.301Z,8.50
2018-01-05T19:13:45.079Z,8.40
2018-01-05T19:16:13.556Z,8.30
2018-01-05T19:18:42.111Z,8.30
2018-01-05T19:21:09.702Z,8.40
2018-01-05T19:23:38.086Z,8.40
2018-01-05T19:26:06.462Z,8.50
2018-01-05T19:28:34.809Z,8.60
2018-01-05T19:31:03.349Z,8.60
2018-01-05T19:33:30.975Z,8.60
2018-01-05T19:35:58.557Z,8.50
2018-01-05T19:38:26.913Z,8.50
2018-01-05T19:40:54.531Z,8.50
2018-01-05T19:43:22.117Z,8.50
2018-01-05T19:45:49.722Z,8.50
2018-01-05T19:48:17.297Z,8.40
2018-01-05T19:50:44.907Z,8.40
2018-01-05T19:53:12.538Z,8.50
2018-01-05T19:55:40.118Z,8.50
2018-01-05T19:58:07.769Z,8.50
2018-01-05T20:00:35.309Z,8.50
2018-01-05T20:03:02.922Z,8.50
2018-01-05T20:05:30.591Z,8.50
2018-01-05T20:07:58.167Z,8.50
2018-01-05T20:10:25.780Z,8.50
2018-01-05T20:12:53.377Z,8.50
2018-01-05T20:15:21.730Z,8.50
2018-01-05T20:17:49.347Z,8.50
2018-01-05T20:20:16.945Z,8.50
2018-01-05T20:22:44.540Z,8.50
2018-01-05T20:25:12.901Z,8.50
2018-01-05T20:27:41.273Z,8.40
2018-01-05T20:30:08.857Z,8.40
2018-01-05T20:32:37.226Z,8.50
2018-01-05T20:35:05.576Z,8.40
2018-01-05T20:37:34.093Z,8.40
2018-01-05T20:40:02.452Z,8.40
2018-01-05T20:42:30.809Z,8.40
2018-01-05T20:44:58.410Z,8.40
2018-01-05T20:47:26.782Z,8.40
2018-01-05T20:49:56.161Z,8.40
2018-01-05T20:52:23.873Z,8.30
2018-01-05T20:54:51.493Z,8.30
2018-01-05T20:57:19.144Z,8.30
2018-01-05T20:59:46.774Z,8.20
2018-01-05T21:02:14.363Z,8.20
2018-01-05T21:04:41.967Z,8.20
2018-01-05T21:07:09.552Z,8.30
2018-01-05T21:09:37.128Z,8.20
2018-01-05T21:12:04.762Z,8.20
2018-01-05T21:14:32.351Z,8.20
2018-01-05T21:16:59.985Z,8.20
2018-01-05T21:19:27.673Z,8.20
2018-01-05T21:21:57.229Z,8.20
2018-01-05T21:24:24.817Z,8.20
2018-01-05T21:26:52.481Z,8.20
2018-01-05T21:29:20.070Z,8.20
2018-01-05T21:31:48.689Z,8.20
2018-01-05T21:34:17.045Z,8.20
2018-01-05T21:36:44.636Z,8.10
2018-01-05T21:39:12.256Z,8.20
2018-01-05T21:41:40.685Z,8.20
2018-01-05T21:44:08.329Z,8.20
2018-01-05T21:46:36.736Z,8.20
2018-01-05T21:49:04.351Z,8.20
2018-01-05T21:51:31.941Z,8.20
2018-01-05T21:53:59.542Z,8.20
2018-01-05T21:56:27.151Z,8.20
2018-01-05T21:58:55.525Z,8.20
2018-01-05T22:01:25.098Z,8.20
2018-01-05T22:03:52.740Z,8.20
2018-01-05T22:06:20.323Z,8.20
2018-01-05T22:08:47.912Z,8.20
2018-01-05T22:11:16.278Z,8.20
2018-01-05T22:13:44.670Z,8.20
2018-01-05T22:16:13.044Z,8.20
2018-01-05T22:18:41.396Z,8.20
2018-01-05T22:21:09.009Z,8.20
2018-01-05T22:23:36.596Z,8.20
2018-01-05T22:26:04.194Z,8.20
2018-01-05T22:28:32.566Z,8.20
2018-01-05T22:31:00.193Z,8.20
2018-01-05T22:33:27.784Z,8.20
2018-01-05T22:35:55.396Z,8.20
2018-01-05T22:38:22.989Z,8.20
2018-01-05T22:40:50.611Z,8.20
2018-01-05T22:43:18.188Z,8.20
2018-01-05T22:45:45.781Z,8.20
2018-01-05T22:48:13.382Z,8.20
2018-01-05T22:50:41.000Z,8.20
2018-01-05T22:53:08.642Z,8.20
2018-01-05T22:55:37.013Z,8.20
2018-01-05T22:58:04.698Z,8.10
2018-01-05T23:00:32.278Z,8.20
2018-01-05T23:03:00.696Z,8.20
2018-01-05T23:05:28.326Z,8.20
2018-01-05T23:07:56.714Z,8.10
2018-01-05T23:10:24.313Z,8.10
2018-01-05T23:12:51.949Z,8.10
2018-01-05T23:15:19.542Z,8.10
2018-01-05T23:17:47.130Z,8.10
2018-01-05T23:20:14.758Z,8.10
2018-01-05T23:22:43.113Z,8.10
2018-01-05T23:25:10.803Z,8.10
2018-01-05T23:27:38.393Z,8.10
2018-01-05T23:30:06.822Z,8.00
2018-01-05T23:32:34.426Z,8.00
2018-01-05T23:35:02.021Z,8.00
2018-01-05T23:37:30.366Z,8.10
2018-01-05T23:39:58.004Z,8.10
2018-01-05T23:42:25.620Z,8.10
2018-01-05T23:44:53.238Z,8.10
2018-01-05T23:47:20.838Z,8.10
2018-01-05T23:49:49.219Z,8.00
2018-01-05T23:52:17.605Z,8.00
2018-01-05T23:54:45.241Z,8.00
2018-01-05T23:57:13.612Z,8.00
2018-01-05T23:59:41.717Z,8.00
